Pagrindinis puslapis
METAR-TAF:

METAR-TAF

Oro uostai :

Sullivan County International Airport

Monticello, Niujorko valstija, Jungtinės Amerikos Valstijos

platuma: 41-42N, ilguma: 074-48W, Aukštis: 428 m

Dabartinis oras

Ataskaita buvo paskelbta 11 minutes, ne 07:04 UTC
Vėjas 10 kt iš Vakarų su gūsio iki 16 kt
Temperatūra -6°C
Drėgmė 79%
Slėgis 1006 hPa
Matomumas: 12.9 km
Mažai debesys ne aukštis 1600 ft
Su prošvaistėmis ne aukštis 3300 ft
Apsiniaukę ne aukštis 6000 ft
sniegas

METAR: KMSV 280704Z AUTO 27010G16KT 8SM -SN FEW016 BKN033 OVC060 M06/M09 A2970 RMK AO2 P0000 FZRANO

Laikas: 02:15 (07:15 UTC)


TAF: trūkstamas

Orai ataskaitas ir orų prognozės (METAR, TAF).

turimą stotys yra geltonos ir raudonos taškus žemėlapyje.

Perkelti pele per norėdami pamatyti stoties vardą.

Tada spustelėkite, norėdami matyti oro stebėjimo ir prognozės.

Norėdami pakeisti žemėlapį: spustelėkite ant žalios mygtukų su juodo kryžiaus žemyn,; žalią mygtuką su brūkšneliu, jei norite nutolinti; arba žalių rodyklių gretimoms žemėlapius.


METAR-TAF: